Terminal Aerodrome Forecast
Issued by NWS

Home | Current Version | Previous Version | Text Only | Print | Product List | Glossary On
Versions: 1 2 3 4 5 6 7 8 9 10 11 12 13 14 15 16 17 18 19 20
000
FTUS41 KGYX 211853 AAA
TAFAUG
TAF AMD
KAUG 211853Z 2119/2218 18011G20KT P6SM BKN010
      TEMPO 2119/2122 SCT010
     FM220000 15006KT 1/4SM FG OVC002
     FM221500 25008G15KT P6SM OVC007
     FM221600 26010G17KT P6SM BKN015=

USA.gov is the U.S. government's official web portal to all federal, state and local government web resources and services.